Aeroporto :
LOGIN :

Iscrizione | Disclaimer

   EN    FR    IT 

 










Sommario :    VFR   VFR Marginale   IFR   IFR Intensivo   IFR Molto Intensivo
Visibilità : 
Base nubi : 
>= 8 km
>= 3000ft
5 / 8 km
1000 / 3000 ft
1500m / 5 km
500 / 1000 ft
800 / 1500m
200 / 500 ft
< 800m
< 200 ft
Simboli :   Temporali  Nebbia  Neve Forte  Precipitazioni Forti  Vento > 20 kt
SIGMETs :   Varie  Temporali  Ghiacco  Turbolenza  Onda orograficha  Ceneri Vulcaniche






- Altitudine del aeroporto : 257 ft
- Codice IATA : MAN


EGCC - Manchester

ULTIMO METAR :
  • 231120Z 29017KT 9999 FEW011 BKN018 06/04 Q1013 NOSIG

METARs OBSOLETI :
  • 231050Z AUTO 29014G24KT 9999 BKN007/// OVC017/// //////TCU 06/04 Q1012
  • 231020Z 29014KT 6000 -RA SCT006 BKN024 06/05 Q1010
  • 230950Z 27015KT 5000 -RA BR BKN005 BKN010 07/06 Q1009 BECMG FEW005 BKN025
  • 230920Z AUTO 27015KT 220V300 5000 -DZ BKN003 OVC009 07/06 Q1008
  • 230850Z 26009KT 220V290 9999 BKN003 07/06 Q1007 BECMG FEW003 BKN030

TAF TAF EGCC
Valido dal 23 a 12 ore il 24 a 18 ore UTC


231100Z 2312/2418 27012KT 9999 BKN030
TEMPO 2312/2316 29016G26KT
BECMG 2315/2318 CAVOK
BECMG 2318/2321 19005KT
BECMG 2400/2403 12010KT 8000 -RA SCT005 BKN010
TEMPO 2402/2409 4000 RA BKN005
PROB40
TEMPO 2403/2409 1200 +RA BR BKN002
BECMG 2409/2412 22012KT 9999 NSW BKN025
PROB30
TEMPO 2415/2418 7000 SHRA
ATIS : +44 161 499 2324



MetMap, La meteo Aeronautica in un colpo d'occhio ! - Copyright ORBIFLY Dicembre 2007 - Disclaimer

ORBIFLY MET'MAP TEAM :

Programmazione e sviluppo : Alexandra Zaïnal
Concezione : Baudouin d'Aumeries
Aiuto per la programmazione : Marc-Olivier Méhu
Supporto tecnico e logistico : Manuel Goepfert
Aiuto per la traduzione : Arnaldo La Scala

Contatto : metmap@orbifly.com




FONTI E CREDITI :

   NOAA